Time;durP1;ratioP1;P1;durP2;ratioP2;P2;SDS_P1;SDS_P2;PMS_P1;PMS_P2;Temp;Humidity;BMP_temperature;BMP_pressure;BME280_temperature;BME280_humidity;BME280_pressure;Samples;Min_cycle;Max_cycle;Signal;HPM_P1;HPM_P2
2024/04/06 00:02:13;;;;;;;0.50;0.30;;;15.10;99.90;;;;;;5083453;28;20205;-86
2024/04/06 00:04:41;;;;;;;0.50;0.40;;;15.10;99.90;;;;;;5083371;28;20774;-86
2024/04/06 00:07:07;;;;;;;0.50;0.40;;;15.10;99.90;;;;;;5083497;28;20439;-86
2024/04/06 00:09:36;;;;;;;0.50;0.40;;;15.10;99.90;;;;;;5083653;28;20440;-86
2024/04/06 00:12:04;;;;;;;0.53;0.53;;;15.20;99.90;;;;;;5083323;28;20444;-86
2024/04/06 00:14:31;;;;;;;0.50;0.40;;;15.20;99.90;;;;;;5083671;28;20446;-86
2024/04/06 00:16:57;;;;;;;0.50;0.40;;;15.10;99.90;;;;;;5082602;28;20432;-86
2024/04/06 00:19:25;;;;;;;0.50;0.40;;;15.10;99.90;;;;;;5083236;28;20435;-85
2024/04/06 00:21:51;;;;;;;0.50;0.40;;;15.10;99.90;;;;;;5083019;28;20436;-86
2024/04/06 00:24:18;;;;;;;0.50;0.30;;;15.10;99.90;;;;;;5082854;28;20535;-86
2024/04/06 00:26:46;;;;;;;0.60;0.60;;;15.00;99.90;;;;;;5082648;28;20226;-86
2024/04/06 00:29:13;;;;;;;0.50;0.40;;;15.00;99.90;;;;;;5083618;28;20490;-86
2024/04/06 00:31:40;;;;;;;0.50;0.40;;;15.00;99.90;;;;;;5083187;28;20464;-86
2024/04/06 00:34:07;;;;;;;0.50;0.40;;;14.90;99.90;;;;;;5082628;28;20447;-85
2024/04/06 00:36:33;;;;;;;0.50;0.40;;;14.90;99.90;;;;;;5082921;28;20420;-86
2024/04/06 00:39:00;;;;;;;0.50;0.40;;;15.00;99.90;;;;;;5083046;28;20463;-86
2024/04/06 00:41:26;;;;;;;0.50;0.30;;;15.00;99.90;;;;;;5082233;28;20559;-86
2024/04/06 00:43:54;;;;;;;0.60;0.50;;;14.90;99.90;;;;;;5082604;28;20439;-86
2024/04/06 00:46:20;;;;;;;0.50;0.37;;;14.90;99.90;;;;;;5082413;28;20479;-86
2024/04/06 00:48:47;;;;;;;1.23;1.13;;;14.90;99.90;;;;;;5080945;28;20456;-86
2024/04/06 00:51:13;;;;;;;0.50;0.40;;;14.90;99.90;;;;;;5082105;28;20200;-86
2024/04/06 00:53:41;;;;;;;0.50;0.40;;;14.90;99.90;;;;;;5080321;28;20449;-86
2024/04/06 00:56:07;;;;;;;0.50;0.40;;;14.90;99.90;;;;;;5082608;28;20429;-86
2024/04/06 00:58:37;;;;;;;0.50;0.40;;;14.90;99.90;;;;;;5081915;28;20536;-86
2024/04/06 01:01:04;;;;;;;0.50;0.40;;;14.90;99.90;;;;;;5082417;28;20503;-86
2024/04/06 01:03:31;;;;;;;0.53;0.53;;;14.90;99.90;;;;;;5079742;28;20845;-86
2024/04/06 01:05:57;;;;;;;0.50;0.40;;;14.90;99.90;;;;;;5081849;28;20510;-86
2024/04/06 01:08:26;;;;;;;1.10;0.90;;;14.90;99.90;;;;;;5087029;28;20464;-86
2024/04/06 01:10:52;;;;;;;3.73;1.07;;;15.00;99.90;;;;;;5087114;28;20561;-85
2024/04/06 01:13:19;;;;;;;0.50;0.40;;;15.00;99.90;;;;;;5086851;28;20446;-84
2024/04/06 01:15:46;;;;;;;0.50;0.30;;;15.00;99.90;;;;;;5078426;28;20433;-84
2024/04/06 01:18:14;;;;;;;0.50;0.30;;;15.00;99.90;;;;;;5077989;28;20838;-84
2024/04/06 01:20:43;;;;;;;0.50;0.30;;;15.00;99.90;;;;;;5076700;28;20441;-85
2024/04/06 01:23:11;;;;;;;0.50;0.40;;;15.00;99.90;;;;;;5077872;28;20440;-85
2024/04/06 01:25:40;;;;;;;0.50;0.50;;;15.00;99.90;;;;;;5076926;28;20524;-84
2024/04/06 01:28:07;;;;;;;0.60;0.53;;;15.10;99.90;;;;;;5077756;28;20456;-86
2024/04/06 01:30:34;;;;;;;0.60;0.50;;;15.10;99.90;;;;;;5076336;28;20960;-85
2024/04/06 01:33:01;;;;;;;0.50;0.50;;;15.10;99.90;;;;;;5078302;28;20520;-84
2024/04/06 01:35:27;;;;;;;0.50;0.40;;;15.00;99.90;;;;;;5078310;28;20430;-85
2024/04/06 01:37:53;;;;;;;0.50;0.30;;;15.10;99.90;;;;;;5078204;28;20464;-85
2024/04/06 01:40:19;;;;;;;1.17;0.80;;;15.10;99.90;;;;;;5076818;28;20201;-85
2024/04/06 01:42:48;;;;;;;0.50;0.40;;;15.10;99.90;;;;;;5076864;28;20815;-85
2024/04/06 01:45:15;;;;;;;0.57;0.57;;;15.10;99.90;;;;;;5077118;28;20199;-85
2024/04/06 01:47:43;;;;;;;1.13;0.73;;;15.10;99.90;;;;;;5078229;28;20465;-84
2024/04/06 01:50:09;;;;;;;0.60;0.60;;;15.10;99.90;;;;;;5077215;28;20504;-85
2024/04/06 01:52:36;;;;;;;0.50;0.40;;;15.10;99.90;;;;;;5077975;28;20434;-84
2024/04/06 01:55:05;;;;;;;0.80;0.57;;;15.10;99.90;;;;;;5077377;28;20443;-85
2024/04/06 01:57:31;;;;;;;5.10;1.03;;;15.10;99.90;;;;;;5077343;28;20460;-85
2024/04/06 01:59:59;;;;;;;0.90;0.90;;;15.10;99.90;;;;;;5075988;28;20487;-84
2024/04/06 02:02:26;;;;;;;0.63;0.60;;;15.10;99.90;;;;;;5077676;28;20458;-84
2024/04/06 02:04:51;;;;;;;0.50;0.33;;;15.10;99.90;;;;;;5076363;28;20508;-84
2024/04/06 02:07:18;;;;;;;1.00;1.00;;;15.20;99.90;;;;;;5079478;28;20470;-85
2024/04/06 02:09:44;;;;;;;1.90;0.60;;;15.10;99.90;;;;;;5080539;28;20200;-85
2024/04/06 02:12:11;;;;;;;1.83;0.60;;;15.10;99.90;;;;;;5081270;28;20815;-84
2024/04/06 02:14:37;;;;;;;0.83;0.83;;;15.10;99.90;;;;;;5081441;28;20781;-86
2024/04/06 02:17:06;;;;;;;1.23;0.83;;;15.00;99.90;;;;;;5080682;28;20431;-84
2024/04/06 02:19:32;;;;;;;0.50;0.40;;;15.00;99.90;;;;;;5080687;28;20200;-85
2024/04/06 02:21:59;;;;;;;0.50;0.30;;;15.00;99.90;;;;;;5079940;28;20453;-85
2024/04/06 02:24:25;;;;;;;0.50;0.30;;;14.90;99.90;;;;;;5079642;28;20206;-85
2024/04/06 02:26:52;;;;;;;0.50;0.40;;;14.90;99.90;;;;;;5080508;28;20845;-85
2024/04/06 02:29:19;;;;;;;1.13;0.67;;;14.90;99.90;;;;;;5079224;28;20589;-84
2024/04/06 02:31:45;;;;;;;0.50;0.40;;;14.90;99.90;;;;;;5080203;28;20447;-84
2024/04/06 02:34:14;;;;;;;10.93;1.47;;;14.90;99.90;;;;;;5079403;28;20974;-84
2024/04/06 02:36:41;;;;;;;0.50;0.50;;;14.90;99.90;;;;;;5079012;28;20847;-86
2024/04/06 02:39:10;;;;;;;0.50;0.40;;;14.80;99.90;;;;;;5079884;28;20490;-85
2024/04/06 02:41:36;;;;;;;1.17;1.17;;;14.70;99.90;;;;;;5062573;28;20498;-85
2024/04/06 02:44:03;;;;;;;0.50;0.30;;;14.70;99.90;;;;;;5079681;28;20528;-85
2024/04/06 02:46:28;;;;;;;0.60;0.60;;;14.60;99.90;;;;;;5078726;28;20469;-85
2024/04/06 02:48:56;;;;;;;0.50;0.40;;;14.50;99.90;;;;;;5079699;28;20452;-84
2024/04/06 02:51:26;;;;;;;0.50;0.40;;;14.40;99.90;;;;;;5078134;28;20202;-84
2024/04/06 02:53:53;;;;;;;0.50;0.40;;;14.40;99.90;;;;;;5079715;28;20473;-84
2024/04/06 02:56:18;;;;;;;0.50;0.40;;;14.40;99.90;;;;;;5079635;28;20449;-84
2024/04/06 02:58:45;;;;;;;0.50;0.30;;;14.40;99.90;;;;;;5079095;28;20466;-84
2024/04/06 03:01:11;;;;;;;0.50;0.30;;;14.30;99.90;;;;;;5078937;28;20730;-84
2024/04/06 03:03:38;;;;;;;0.50;0.40;;;14.20;99.90;;;;;;5079135;28;20458;-85
2024/04/06 03:06:04;;;;;;;0.50;0.40;;;14.20;99.90;;;;;;5077730;28;20238;-85
2024/04/06 03:08:32;;;;;;;0.50;0.40;;;14.20;99.90;;;;;;5076987;28;20458;-84
2024/04/06 03:10:58;;;;;;;0.50;0.40;;;14.20;99.90;;;;;;5077169;28;20197;-85
2024/04/06 03:13:26;;;;;;;0.50;0.40;;;14.20;99.90;;;;;;5076338;28;20443;-85
2024/04/06 03:15:52;;;;;;;0.50;0.50;;;14.20;99.90;;;;;;5078002;28;20193;-85
2024/04/06 03:18:18;;;;;;;0.50;0.40;;;14.10;99.90;;;;;;5077542;28;20460;-84
2024/04/06 03:20:44;;;;;;;0.50;0.40;;;14.10;99.90;;;;;;5078293;28;20438;-85
2024/04/06 03:23:13;;;;;;;0.50;0.50;;;14.00;99.90;;;;;;5078018;28;20424;-85
2024/04/06 03:25:40;;;;;;;0.50;0.30;;;14.00;99.90;;;;;;5077832;28;20476;-85
2024/04/06 03:28:07;;;;;;;0.50;0.40;;;14.00;99.90;;;;;;5077664;28;20531;-86
2024/04/06 03:30:33;;;;;;;0.50;0.50;;;14.00;99.90;;;;;;5078159;28;20443;-85
2024/04/06 03:32:59;;;;;;;0.50;0.40;;;14.00;99.90;;;;;;5076589;28;20440;-85
2024/04/06 03:35:27;;;;;;;0.50;0.40;;;13.90;99.90;;;;;;5077264;28;20490;-86
2024/04/06 03:37:54;;;;;;;0.50;0.40;;;13.90;99.90;;;;;;5085207;28;20495;-85
2024/04/06 03:40:20;;;;;;;0.50;0.40;;;13.80;99.90;;;;;;5080900;28;20437;-86
2024/04/06 03:42:56;;;;;;;0.50;0.40;;;13.80;99.90;;;;;;5081768;28;20436;-86
2024/04/06 03:45:22;;;;;;;0.50;0.40;;;13.70;99.90;;;;;;5087298;28;20440;-86
2024/04/06 03:47:50;;;;;;;0.50;0.40;;;13.70;99.90;;;;;;5095658;28;20449;-86
2024/04/06 03:50:16;;;;;;;0.50;0.30;;;13.70;99.90;;;;;;5095781;28;20446;-86
2024/04/06 03:52:44;;;;;;;0.50;0.40;;;13.70;99.90;;;;;;5086726;28;20449;-87
2024/04/06 03:55:10;;;;;;;0.50;0.50;;;13.70;99.90;;;;;;5084116;28;20809;-86
2024/04/06 03:57:36;;;;;;;0.50;0.47;;;13.70;99.90;;;;;;5082431;28;20449;-86
2024/04/06 04:00:10;;;;;;;0.50;0.40;;;13.80;99.90;;;;;;5083006;28;20506;-86
2024/04/06 04:02:37;;;;;;;0.50;0.40;;;13.80;99.90;;;;;;5083116;28;20443;-86
2024/04/06 04:05:05;;;;;;;0.50;0.40;;;13.80;99.90;;;;;;5042745;28;1096014;-87
2024/04/06 04:07:32;;;;;;;0.50;0.30;;;13.80;99.90;;;;;;5082793;28;20226;-86
2024/04/06 04:10:01;;;;;;;0.50;0.47;;;13.80;99.90;;;;;;5083598;28;20437;-86
2024/04/06 04:12:27;;;;;;;0.50;0.40;;;13.80;99.90;;;;;;5083355;28;20436;-86
2024/04/06 04:14:54;;;;;;;0.50;0.40;;;13.80;99.90;;;;;;5083482;28;20448;-86
2024/04/06 04:17:22;;;;;;;0.50;0.40;;;13.80;99.90;;;;;;5083337;28;20454;-86
2024/04/06 04:19:49;;;;;;;0.50;0.47;;;13.80;99.90;;;;;;5083826;28;20472;-86
2024/04/06 04:22:14;;;;;;;0.50;0.40;;;13.80;99.90;;;;;;5082989;28;20449;-86
2024/04/06 04:24:41;;;;;;;0.50;0.37;;;13.80;99.90;;;;;;5083171;28;20433;-87
2024/04/06 04:27:08;;;;;;;0.50;0.40;;;13.80;99.90;;;;;;5081719;28;20698;-86
2024/04/06 04:29:36;;;;;;;0.70;0.70;;;13.80;99.90;;;;;;5082655;28;20444;-86
2024/04/06 04:32:03;;;;;;;0.50;0.40;;;13.80;99.90;;;;;;5082815;28;20442;-86
2024/04/06 04:34:31;;;;;;;0.60;0.60;;;13.80;99.90;;;;;;5083304;28;20445;-86
2024/04/06 04:36:57;;;;;;;0.50;0.30;;;13.80;99.90;;;;;;5082991;28;20438;-86
2024/04/06 04:39:25;;;;;;;0.60;0.50;;;13.80;99.90;;;;;;5083227;28;20447;-86
2024/04/06 04:41:51;;;;;;;0.50;0.50;;;13.80;99.90;;;;;;5083040;28;20197;-86
2024/04/06 04:44:18;;;;;;;1.23;0.70;;;13.80;99.90;;;;;;5082719;28;20456;-86
2024/04/06 04:46:45;;;;;;;0.50;0.40;;;13.80;99.90;;;;;;5065605;28;20243;-86
2024/04/06 04:49:12;;;;;;;0.50;0.30;;;13.80;99.90;;;;;;5081889;28;20457;-86
2024/04/06 04:51:40;;;;;;;0.50;0.40;;;13.80;99.90;;;;;;5082800;28;20448;-86
2024/04/06 04:54:08;;;;;;;0.50;0.40;;;13.70;99.90;;;;;;5081956;28;20451;-86
2024/04/06 04:56:33;;;;;;;0.50;0.40;;;13.70;99.90;;;;;;5082440;28;20785;-86
2024/04/06 04:59:00;;;;;;;0.50;0.40;;;13.70;99.90;;;;;;5082398;28;20465;-85
2024/04/06 05:01:28;;;;;;;0.50;0.40;;;13.70;99.90;;;;;;5083719;28;20197;-85
2024/04/06 05:03:55;;;;;;;0.50;0.40;;;13.70;99.90;;;;;;5083248;28;20447;-85
2024/04/06 05:06:21;;;;;;;0.50;0.50;;;13.70;99.90;;;;;;5082824;28;20848;-87
2024/04/06 05:08:49;;;;;;;0.50;0.40;;;13.70;99.90;;;;;;5081490;28;20453;-88
2024/04/06 05:11:15;;;;;;;0.50;0.40;;;13.70;99.90;;;;;;5083038;28;20515;-86
2024/04/06 05:13:42;;;;;;;0.50;0.40;;;13.70;99.90;;;;;;5082493;28;20441;-86
2024/04/06 05:16:08;;;;;;;0.50;0.40;;;13.70;99.90;;;;;;5083824;28;20440;-85
2024/04/06 05:18:34;;;;;;;0.50;0.40;;;13.80;99.90;;;;;;5082778;28;20445;-89
2024/04/06 05:21:01;;;;;;;0.60;0.50;;;13.80;99.90;;;;;;5083228;28;20199;-87
2024/04/06 05:23:29;;;;;;;0.60;0.60;;;13.90;99.90;;;;;;5081668;28;21007;-87
2024/04/06 05:25:58;;;;;;;0.97;0.50;;;13.90;99.90;;;;;;5083069;28;20924;-87
2024/04/06 05:28:27;;;;;;;0.50;0.30;;;14.10;99.90;;;;;;5083339;28;20492;-87
2024/04/06 05:30:53;;;;;;;0.50;0.40;;;14.20;99.90;;;;;;5082915;28;20448;-87
2024/04/06 05:33:21;;;;;;;0.80;0.70;;;14.20;99.90;;;;;;5081633;28;20433;-87
2024/04/06 05:35:48;;;;;;;0.50;0.40;;;14.30;99.90;;;;;;5083383;28;20447;-89
2024/04/06 05:38:16;;;;;;;3.43;1.67;;;14.40;99.90;;;;;;5081377;28;20523;-86
2024/04/06 05:40:43;;;;;;;0.50;0.33;;;14.40;99.90;;;;;;5083639;28;20437;-88
2024/04/06 05:43:11;;;;;;;0.80;0.50;;;14.50;99.90;;;;;;5083150;28;20533;-85
2024/04/06 05:45:41;;;;;;;0.60;0.40;;;14.60;99.90;;;;;;5083642;28;20966;-85
2024/04/06 05:48:10;;;;;;;0.50;0.40;;;14.70;99.90;;;;;;5082866;28;20906;-85
2024/04/06 05:50:36;;;;;;;0.50;0.40;;;14.80;99.90;;;;;;5085347;28;20433;-88
2024/04/06 05:53:05;;;;;;;0.50;0.40;;;14.90;99.90;;;;;;5083299;28;20459;-87
2024/04/06 05:55:31;;;;;;;0.50;0.43;;;15.00;99.90;;;;;;5085328;28;20971;-88
2024/04/06 05:58:00;;;;;;;0.50;0.40;;;15.10;99.90;;;;;;5085458;28;20494;-88
2024/04/06 06:00:27;;;;;;;0.50;0.40;;;15.30;99.90;;;;;;5084653;28;20437;-87
2024/04/06 06:02:55;;;;;;;0.50;0.30;;;15.40;99.90;;;;;;5084957;28;20441;-87
2024/04/06 06:05:21;;;;;;;0.93;0.77;;;15.50;99.90;;;;;;5086282;28;20442;-86
2024/04/06 06:07:48;;;;;;;0.50;0.30;;;15.50;99.90;;;;;;5086183;28;20485;-87
2024/04/06 06:10:15;;;;;;;0.50;0.40;;;15.60;99.90;;;;;;5085752;28;20201;-89
2024/04/06 06:12:47;;;;;;;0.50;0.50;;;15.50;99.90;;;;;;5085554;28;20440;-87
2024/04/06 06:15:12;;;;;;;0.50;0.40;;;15.60;99.90;;;;;;5085749;28;20436;-86
2024/04/06 06:17:41;;;;;;;0.50;0.40;;;15.70;99.90;;;;;;5085081;28;20890;-86
2024/04/06 06:20:07;;;;;;;0.50;0.40;;;15.80;99.90;;;;;;5085877;28;20205;-87
2024/04/06 06:22:36;;;;;;;0.50;0.33;;;15.80;99.90;;;;;;5086631;28;20460;-87
2024/04/06 06:25:03;;;;;;;0.50;0.40;;;15.80;99.90;;;;;;5086055;28;20447;-88
2024/04/06 06:27:31;;;;;;;0.50;0.40;;;15.90;99.90;;;;;;5094120;28;20570;-86
2024/04/06 06:29:59;;;;;;;0.70;0.40;;;16.00;99.90;;;;;;5096837;28;20446;-88
2024/04/06 06:32:25;;;;;;;0.57;0.53;;;16.20;99.90;;;;;;5090482;28;20447;-88
2024/04/06 06:34:52;;;;;;;0.50;0.37;;;16.40;99.90;;;;;;5095135;28;20433;-86
2024/04/06 06:37:20;;;;;;;0.50;0.50;;;16.90;99.90;;;;;;5096819;28;20441;-86
2024/04/06 06:39:46;;;;;;;1.03;0.40;;;17.30;99.90;;;;;;5096899;28;21083;-86
2024/04/06 06:42:13;;;;;;;0.50;0.40;;;17.70;99.90;;;;;;5093797;28;20471;-87
2024/04/06 06:44:40;;;;;;;3.23;0.80;;;18.20;99.90;;;;;;5089753;28;20202;-88
2024/04/06 06:47:11;;;;;;;0.60;0.57;;;18.20;99.90;;;;;;5087523;28;20467;-87
2024/04/06 06:49:37;;;;;;;0.50;0.40;;;18.00;99.90;;;;;;5088015;28;20444;-87
2024/04/06 06:52:06;;;;;;;1.13;1.07;;;17.50;99.90;;;;;;5088862;28;20435;-88
2024/04/06 06:54:33;;;;;;;0.60;0.60;;;17.40;99.90;;;;;;5090769;28;20439;-87
2024/04/06 06:57:00;;;;;;;0.80;0.50;;;17.20;99.90;;;;;;5090034;28;20440;-88
2024/04/06 06:59:26;;;;;;;0.50;0.40;;;17.10;99.90;;;;;;5090302;28;20432;-89
2024/04/06 07:01:53;;;;;;;0.50;0.40;;;17.10;99.90;;;;;;5090481;28;20501;-88
2024/04/06 07:04:19;;;;;;;0.63;0.60;;;17.00;99.90;;;;;;5089720;28;20197;-87
2024/04/06 07:06:46;;;;;;;0.50;0.30;;;17.10;99.90;;;;;;5089816;28;20994;-87
2024/04/06 07:09:13;;;;;;;0.50;0.40;;;17.10;99.90;;;;;;5092019;28;20463;-87
2024/04/06 07:11:43;;;;;;;0.70;0.70;;;17.10;99.90;;;;;;5096406;28;20440;-89
2024/04/06 07:14:11;;;;;;;1.07;0.87;;;17.10;99.90;;;;;;5098659;28;20570;-88
2024/04/06 07:16:38;;;;;;;2.10;1.90;;;17.10;99.90;;;;;;5098759;28;20468;-87
2024/04/06 07:19:05;;;;;;;0.60;0.50;;;17.00;99.90;;;;;;5098849;28;20456;-87
2024/04/06 07:21:32;;;;;;;0.50;0.30;;;17.00;99.90;;;;;;5091310;28;20442;-87
2024/04/06 07:23:57;;;;;;;1.87;0.67;;;17.00;99.90;;;;;;5092002;28;20465;-88
2024/04/06 07:26:26;;;;;;;1.13;0.97;;;17.10;99.90;;;;;;5089958;28;20459;-87
2024/04/06 07:28:52;;;;;;;0.70;0.70;;;17.40;99.90;;;;;;5089234;28;20257;-88
2024/04/06 07:31:19;;;;;;;1.67;1.57;;;18.40;99.90;;;;;;5089513;28;20491;-86
2024/04/06 07:33:45;;;;;;;0.50;0.40;;;19.10;99.90;;;;;;5087928;28;20426;-87
2024/04/06 07:36:14;;;;;;;0.70;0.70;;;19.70;99.90;;;;;;5090621;28;20440;-87
2024/04/06 07:38:40;;;;;;;0.50;0.40;;;20.20;99.90;;;;;;5092944;28;20222;-86
2024/04/06 07:41:08;;;;;;;0.53;0.50;;;20.20;99.90;;;;;;5091957;28;20430;-86
2024/04/06 07:43:36;;;;;;;1.17;1.07;;;20.50;99.90;;;;;;5091893;28;20455;-86
2024/04/06 07:46:03;;;;;;;0.50;0.50;;;20.90;99.90;;;;;;5086254;28;20449;-86
2024/04/06 07:48:29;;;;;;;2.40;0.80;;;21.20;99.90;;;;;;5068197;28;20480;-88
2024/04/06 07:50:56;;;;;;;0.80;0.80;;;20.80;99.90;;;;;;5085365;28;20448;-86
2024/04/06 07:53:23;;;;;;;0.50;0.50;;;21.10;99.90;;;;;;5085077;28;20534;-85
2024/04/06 07:55:51;;;;;;;1.07;0.80;;;21.60;99.90;;;;;;5085159;28;21007;-84
2024/04/06 07:58:17;;;;;;;4.73;0.70;;;21.20;99.90;;;;;;5084835;28;20998;-86
2024/04/06 08:00:45;;;;;;;0.50;0.50;;;21.50;99.90;;;;;;5083182;28;20475;-85
2024/04/06 08:03:11;;;;;;;1.10;0.80;;;21.60;99.90;;;;;;5085266;28;20440;-86
2024/04/06 08:05:38;;;;;;;1.07;0.60;;;21.80;99.90;;;;;;5085350;28;20447;-84
2024/04/06 08:08:07;;;;;;;3.33;0.60;;;21.90;99.90;;;;;;5086566;28;20216;-85
2024/04/06 08:10:37;;;;;;;0.50;0.43;;;22.00;99.90;;;;;;5084000;28;20512;-84
2024/04/06 08:13:03;;;;;;;0.97;0.90;;;22.20;99.90;;;;;;5086796;28;20443;-85
2024/04/06 08:15:30;;;;;;;0.50;0.50;;;22.10;99.90;;;;;;5084672;28;20471;-84
2024/04/06 08:17:58;;;;;;;1.10;1.10;;;22.40;99.90;;;;;;5085396;28;20477;-85
2024/04/06 08:20:26;;;;;;;0.97;0.97;;;23.00;99.90;;;;;;5086444;28;20445;-85
2024/04/06 08:22:51;;;;;;;0.50;0.40;;;23.20;99.90;;;;;;5077981;28;20947;-85
2024/04/06 08:25:19;;;;;;;0.50;0.40;;;22.80;99.90;;;;;;5078426;28;20437;-87
2024/04/06 08:27:45;;;;;;;1.67;1.27;;;22.40;99.90;;;;;;5076865;28;20825;-85
2024/04/06 08:30:12;;;;;;;1.33;0.63;;;23.50;99.90;;;;;;5079330;28;20491;-86
2024/04/06 08:32:43;;;;;;;0.50;0.50;;;23.90;99.90;;;;;;5077019;28;20508;-85
2024/04/06 08:35:11;;;;;;;0.57;0.57;;;24.50;99.90;;;;;;5076979;28;20476;-85
2024/04/06 08:37:37;;;;;;;0.50;0.50;;;25.10;99.90;;;;;;5074892;28;20874;-85
2024/04/06 08:40:04;;;;;;;0.50;0.30;;;25.00;99.90;;;;;;5074713;28;20436;-84
2024/04/06 08:42:37;;;;;;;0.50;0.40;;;24.70;99.90;;;;;;5075791;28;20439;-84
2024/04/06 08:45:04;;;;;;;0.97;0.97;;;24.80;99.90;;;;;;5076766;28;20464;-83
2024/04/06 08:47:31;;;;;;;1.80;0.47;;;24.10;99.90;;;;;;5074702;28;20499;-83
2024/04/06 08:50:01;;;;;;;0.60;0.60;;;24.00;99.90;;;;;;5074763;28;20440;-84
2024/04/06 08:52:29;;;;;;;1.13;0.60;;;24.60;99.90;;;;;;5074117;28;20523;-86
2024/04/06 08:54:55;;;;;;;0.50;0.30;;;24.60;99.50;;;;;;5074739;28;20444;-84
2024/04/06 08:57:22;;;;;;;0.50;0.47;;;24.40;99.90;;;;;;5074091;28;20963;-87
2024/04/06 08:59:51;;;;;;;0.77;0.60;;;25.20;96.10;;;;;;5077019;28;20438;-87
2024/04/06 09:02:18;;;;;;;0.50;0.40;;;24.60;95.60;;;;;;5097719;28;20419;-88
2024/04/06 09:04:48;;;;;;;0.70;0.70;;;24.30;96.40;;;;;;5097903;28;20472;-87
2024/04/06 09:07:15;;;;;;;0.50;0.37;;;24.60;97.00;;;;;;5089730;28;20483;-87
2024/04/06 09:09:45;;;;;;;0.50;0.40;;;25.10;95.50;;;;;;5087574;28;20458;-85
2024/04/06 09:12:12;;;;;;;0.50;0.50;;;25.40;93.50;;;;;;5082580;28;20195;-86
2024/04/06 09:14:40;;;;;;;0.50;0.30;;;25.20;91.70;;;;;;5075799;28;20528;-83
2024/04/06 09:17:06;;;;;;;0.97;0.60;;;25.20;93.20;;;;;;5075409;28;20440;-86
2024/04/06 09:19:32;;;;;;;1.07;1.07;;;25.90;92.10;;;;;;5075636;28;20438;-85
2024/04/06 09:21:59;;;;;;;1.70;1.60;;;25.90;91.10;;;;;;5075926;28;20433;-85
2024/04/06 09:24:26;;;;;;;2.40;0.73;;;25.60;90.30;;;;;;5075005;28;20196;-84
2024/04/06 09:27:05;;;;;;;0.50;0.40;;;25.60;90.60;;;;;;5074642;28;20517;-84
2024/04/06 09:29:31;;;;;;;0.77;0.67;;;26.10;90.10;;;;;;5071829;28;20509;-84
2024/04/06 09:32:02;;;;;;;0.60;0.50;;;25.60;86.30;;;;;;5066636;28;20441;-84
2024/04/06 09:34:29;;;;;;;1.47;0.50;;;25.20;86.40;;;;;;5065517;28;20437;-86
2024/04/06 09:37:03;;;;;;;1.37;0.77;;;25.00;85.90;;;;;;5073957;28;20490;-86
2024/04/06 09:39:31;;;;;;;0.70;0.57;;;25.10;88.90;;;;;;5056867;28;21093;-85
2024/04/06 09:42:05;;;;;;;0.60;0.50;;;25.50;83.80;;;;;;5054267;28;20816;-86
2024/04/06 09:44:32;;;;;;;1.37;0.50;;;26.30;84.70;;;;;;5065240;28;20902;-84
2024/04/06 09:46:59;;;;;;;1.03;0.93;;;26.20;80.70;;;;;;5066186;28;20473;-88
2024/04/06 09:49:26;;;;;;;0.90;0.77;;;26.40;79.10;;;;;;5066256;28;20444;-86
2024/04/06 09:51:54;;;;;;;0.50;0.50;;;26.60;77.70;;;;;;5072971;28;20443;-88
2024/04/06 09:54:21;;;;;;;0.50;0.40;;;27.60;79.00;;;;;;5075012;28;20440;-87
2024/04/06 09:56:56;;;;;;;0.90;0.90;;;28.80;77.10;;;;;;5071363;28;20470;-87
2024/04/06 09:59:27;;;;;;;0.77;0.50;;;29.10;71.10;;;;;;5067768;28;20456;-86
2024/04/06 10:01:54;;;;;;;1.10;0.90;;;27.90;68.80;;;;;;5068984;28;20444;-87
2024/04/06 10:04:26;;;;;;;0.50;0.30;;;28.30;71.90;;;;;;5066642;28;20443;-87
2024/04/06 10:06:55;;;;;;;0.50;0.40;;;28.20;69.80;;;;;;5067421;28;20437;-86
2024/04/06 10:09:21;;;;;;;0.50;0.40;;;27.80;70.00;;;;;;5069256;28;20457;-87
2024/04/06 10:11:57;;;;;;;0.50;0.40;;;28.40;68.90;;;;;;5067359;28;20500;-86
2024/04/06 10:14:26;;;;;;;0.70;0.60;;;28.80;65.80;;;;;;5067448;28;20527;-86
2024/04/06 10:17:05;;;;;;;0.50;0.37;;;28.80;69.80;;;;;;5066641;28;20449;-89
2024/04/06 10:19:31;;;;;;;0.70;0.70;;;28.60;66.80;;;;;;5065148;28;20440;-88
2024/04/06 10:22:03;;;;;;;0.97;0.60;;;28.30;66.40;;;;;;5064686;28;20434;-89
2024/04/06 10:24:28;;;;;;;1.43;0.70;;;27.60;66.60;;;;;;5063316;28;20240;-87
2024/04/06 10:26:57;;;;;;;0.50;0.40;;;26.50;67.90;;;;;;5063756;28;20459;-88
2024/04/06 10:29:27;;;;;;;0.80;0.50;;;25.60;70.50;;;;;;5066300;28;20225;-89
2024/04/06 10:31:54;;;;;;;1.10;0.53;;;25.00;70.40;;;;;;5069010;28;20438;-88
2024/04/06 10:34:20;;;;;;;0.50;0.43;;;24.40;73.20;;;;;;5067577;28;20482;-88
2024/04/06 10:36:48;;;;;;;0.50;0.40;;;24.00;75.50;;;;;;5067796;28;21007;-87
2024/04/06 10:39:14;;;;;;;0.50;0.40;;;24.10;73.10;;;;;;5067478;28;20460;-86
2024/04/06 10:41:43;;;;;;;0.83;0.63;;;24.30;70.70;;;;;;5066689;28;20469;-88
2024/04/06 10:44:09;;;;;;;0.60;0.50;;;25.00;71.00;;;;;;5067394;28;20450;-86
2024/04/06 10:46:39;;;;;;;0.60;0.40;;;25.80;70.00;;;;;;5069999;28;20441;-89
2024/04/06 10:49:09;;;;;;;1.27;1.17;;;25.90;69.10;;;;;;5066913;28;20913;-88
2024/04/06 10:51:37;;;;;;;0.50;0.40;;;26.30;69.30;;;;;;5066871;28;20436;-86
2024/04/06 10:54:03;;;;;;;0.50;0.40;;;26.20;67.00;;;;;;5066701;28;20852;-88
2024/04/06 10:56:31;;;;;;;0.50;0.37;;;26.40;66.50;;;;;;5067037;28;20504;-86
2024/04/06 10:58:56;;;;;;;0.70;0.60;;;27.00;66.40;;;;;;5066874;28;20461;-87
2024/04/06 11:01:24;;;;;;;0.60;0.40;;;27.80;63.30;;;;;;5065574;28;20532;-88
2024/04/06 11:03:53;;;;;;;1.63;0.73;;;28.30;63.50;;;;;;5067079;28;20233;-86
2024/04/06 11:06:20;;;;;;;0.50;0.30;;;28.60;60.50;;;;;;5068052;28;20448;-87
2024/04/06 11:08:46;;;;;;;0.60;0.40;;;29.20;64.40;;;;;;5067630;28;20481;-86
2024/04/06 11:11:14;;;;;;;0.90;0.90;;;29.80;61.50;;;;;;5066885;28;20444;-87
2024/04/06 11:13:40;;;;;;;3.17;0.97;;;28.90;59.20;;;;;;5067595;28;20932;-87
2024/04/06 11:16:09;;;;;;;0.70;0.53;;;28.90;60.00;;;;;;5068709;28;20437;-87
2024/04/06 11:18:40;;;;;;;1.33;0.60;;;28.80;59.20;;;;;;5068123;28;20457;-87
2024/04/06 11:21:10;;;;;;;2.00;1.90;;;28.50;60.90;;;;;;5068165;28;20437;-85
2024/04/06 11:23:37;;;;;;;0.50;0.30;;;28.60;59.80;;;;;;5067872;28;20723;-86
2024/04/06 11:26:06;;;;;;;0.70;0.70;;;28.60;60.50;;;;;;5067186;28;20438;-87
2024/04/06 11:28:34;;;;;;;2.10;0.77;;;28.40;59.90;;;;;;5067349;28;20477;-86
2024/04/06 11:31:00;;;;;;;1.13;1.03;;;28.30;59.40;;;;;;5067763;28;20520;-87
2024/04/06 11:33:27;;;;;;;0.67;0.50;;;28.30;63.80;;;;;;5066701;28;20434;-86
2024/04/06 11:35:54;;;;;;;0.50;0.50;;;28.80;60.80;;;;;;5067977;28;20445;-87
2024/04/06 11:38:21;;;;;;;0.67;0.60;;;28.00;59.50;;;;;;5067939;28;20457;-87
2024/04/06 11:40:52;;;;;;;0.60;0.50;;;27.80;60.10;;;;;;5068213;28;20441;-87
2024/04/06 11:43:18;;;;;;;0.60;0.50;;;26.80;60.40;;;;;;5067704;28;20443;-86
2024/04/06 11:45:47;;;;;;;0.50;0.40;;;26.60;60.70;;;;;;5066523;28;20506;-87
2024/04/06 11:48:14;;;;;;;0.50;0.37;;;26.60;60.10;;;;;;5067949;28;20485;-87
2024/04/06 11:50:41;;;;;;;0.60;0.40;;;27.10;60.00;;;;;;5067569;28;20452;-87
2024/04/06 11:53:09;;;;;;;0.50;0.40;;;27.40;59.70;;;;;;5067685;28;20947;-86
2024/04/06 11:55:37;;;;;;;1.53;1.03;;;27.80;59.50;;;;;;5065788;28;20447;-87
2024/04/06 11:58:03;;;;;;;0.53;0.40;;;28.10;58.60;;;;;;5065502;28;20457;-87
2024/04/06 12:00:30;;;;;;;0.50;0.40;;;28.00;59.00;;;;;;5066836;28;20470;-88
2024/04/06 12:02:56;;;;;;;0.50;0.47;;;27.70;58.60;;;;;;5066649;28;20436;-87
2024/04/06 12:05:25;;;;;;;0.50;0.50;;;27.60;62.90;;;;;;5066661;28;20445;-89
2024/04/06 12:07:51;;;;;;;0.50;0.40;;;28.30;59.30;;;;;;5066627;28;20505;-87
2024/04/06 12:10:19;;;;;;;0.70;0.63;;;28.30;57.90;;;;;;5066252;28;20491;-89
2024/04/06 12:12:49;;;;;;;0.50;0.50;;;28.20;60.70;;;;;;5065352;28;20463;-87
2024/04/06 12:15:18;;;;;;;0.70;0.47;;;28.60;58.10;;;;;;5066200;28;20445;-88
2024/04/06 12:17:44;;;;;;;0.77;0.77;;;29.20;57.30;;;;;;5066767;28;20480;-87
2024/04/06 12:20:11;;;;;;;0.57;0.40;;;29.80;57.10;;;;;;5066847;28;20448;-86
2024/04/06 12:22:37;;;;;;;1.53;1.43;;;30.10;55.30;;;;;;5066486;28;20497;-92
2024/04/06 12:25:06;;;;;;;0.50;0.30;;;29.00;55.10;;;;;;5068724;28;20460;-88
2024/04/06 12:27:32;;;;;;;1.00;0.90;;;28.70;57.10;;;;;;5068809;28;20491;-88
2024/04/06 12:30:01;;;;;;;1.23;0.80;;;28.60;57.00;;;;;;5067783;28;20436;-87
2024/04/06 12:32:26;;;;;;;0.60;0.60;;;28.50;56.50;;;;;;5068590;28;20441;-87
2024/04/06 12:34:54;;;;;;;0.50;0.40;;;28.80;56.90;;;;;;5069893;28;20501;-85
2024/04/06 12:37:20;;;;;;;0.87;0.50;;;28.90;56.90;;;;;;5069329;28;20230;-88
2024/04/06 12:39:47;;;;;;;0.60;0.50;;;29.00;57.00;;;;;;5067002;28;20433;-87
2024/04/06 12:42:14;;;;;;;0.77;0.77;;;29.00;55.40;;;;;;5067689;28;20448;-87
2024/04/06 12:44:44;;;;;;;0.80;0.77;;;28.90;56.60;;;;;;5068351;28;20433;-86
2024/04/06 12:47:11;;;;;;;0.60;0.60;;;28.80;55.50;;;;;;5066688;28;20936;-86